Terminal Aerodrome Forecast
Issued by NWS

Home | Current Version | Previous Version | Text Only | Print | Product List | Glossary On
Versions: 1 2 3 4 5 6 7 8 9 10 11 12 13 14 15 16 17 18 19
000
FTUS43 KPAH 182337
TAFCGI
TAF
KCGI 182337Z 1900/1924 30003KT P6SM BKN150
      TEMPO 1900/1902 -SHRA BKN060 OVC150
     FM190330 00000KT P6SM SCT050 BKN130
      TEMPO 1907/1911 5SM BR BKN045
     FM191100 19001KT 5SM BR MIFG FEW008 BKN050
     FM191500 19004KT P6SM SCT045=

USA.gov is the U.S. government's official web portal to all federal, state and local government web resources and services.